createdAt,value
2018-06-11T00:00:35.639Z,69.17
2018-06-11T00:03:03.217Z,69.65
2018-06-11T00:05:31.036Z,69.61
2018-06-11T00:07:58.604Z,70.13
2018-06-11T00:10:26.151Z,69.85
2018-06-11T00:12:53.675Z,69.69
2018-06-11T00:15:21.263Z,69.54
2018-06-11T00:17:48.931Z,69.70
2018-06-11T00:20:16.463Z,69.21
2018-06-11T00:22:44.042Z,68.98
2018-06-11T00:25:11.576Z,69.40
2018-06-11T00:27:39.094Z,69.20
2018-06-11T00:30:06.730Z,69.39
2018-06-11T00:32:34.296Z,69.44
2018-06-11T00:35:01.821Z,70.20
2018-06-11T00:37:29.396Z,70.18
2018-06-11T00:39:56.917Z,70.12
2018-06-11T00:42:24.435Z,69.84
2018-06-11T00:44:51.991Z,69.38
2018-06-11T00:47:19.522Z,69.53
2018-06-11T00:49:47.038Z,69.41
2018-06-11T00:52:14.588Z,69.12
2018-06-11T00:54:42.141Z,69.81
2018-06-11T00:57:09.658Z,70.06
2018-06-11T00:59:37.197Z,69.73
2018-06-11T01:02:04.738Z,69.95
2018-06-11T01:04:32.254Z,70.00
2018-06-11T01:06:59.802Z,69.61
2018-06-11T01:09:27.310Z,69.21
2018-06-11T01:11:54.854Z,69.06
2018-06-11T01:14:22.402Z,68.92
2018-06-11T01:16:49.907Z,69.18
2018-06-11T01:19:17.486Z,69.46
2018-06-11T01:21:45.066Z,69.92
2018-06-11T01:24:12.571Z,69.86
2018-06-11T01:26:40.080Z,69.55
2018-06-11T01:29:07.639Z,69.78
2018-06-11T01:31:35.161Z,69.25
2018-06-11T01:34:02.694Z,69.09
2018-06-11T01:36:30.330Z,68.95
2018-06-11T01:38:57.845Z,69.07
2018-06-11T01:41:25.375Z,69.22
2018-06-11T01:43:52.910Z,69.31
2018-06-11T01:46:20.417Z,69.45
2018-06-11T01:48:47.946Z,69.41
2018-06-11T01:51:15.561Z,69.39
2018-06-11T01:53:43.077Z,69.85
2018-06-11T01:56:10.589Z,70.00
2018-06-11T01:58:38.149Z,69.84
2018-06-11T02:01:05.659Z,69.78
2018-06-11T02:03:33.161Z,70.18
2018-06-11T02:06:00.706Z,69.99
2018-06-11T02:08:28.261Z,70.39
2018-06-11T02:10:55.782Z,70.67
2018-06-11T02:13:23.341Z,70.10
2018-06-11T02:15:50.864Z,70.11
2018-06-11T02:18:18.478Z,70.52
2018-06-11T02:20:46.010Z,70.36
2018-06-11T02:23:13.527Z,70.23
2018-06-11T02:25:41.034Z,69.82
2018-06-11T02:28:08.798Z,70.76
2018-06-11T02:30:36.314Z,70.23
2018-06-11T02:33:03.830Z,69.50
2018-06-11T02:35:31.394Z,69.74
2018-06-11T02:37:58.903Z,69.87
2018-06-11T02:40:26.423Z,70.57
2018-06-11T02:42:53.971Z,70.51
2018-06-11T02:45:21.478Z,70.83
2018-06-11T02:47:49.011Z,70.50
2018-06-11T02:50:16.562Z,71.09
2018-06-11T02:52:44.071Z,70.59
2018-06-11T02:55:11.603Z,70.58
2018-06-11T02:57:39.150Z,70.69
2018-06-11T03:00:06.688Z,70.17
2018-06-11T03:02:34.199Z,70.52
2018-06-11T03:05:01.735Z,70.44
2018-06-11T03:07:29.245Z,70.68
2018-06-11T03:09:56.766Z,70.23
2018-06-11T03:12:24.322Z,70.45
2018-06-11T03:14:51.865Z,70.57
2018-06-11T03:17:19.378Z,70.23
2018-06-11T03:19:46.933Z,70.71
2018-06-11T03:22:14.440Z,70.57
2018-06-11T03:24:41.955Z,70.46
2018-06-11T03:27:09.490Z,70.41
2018-06-11T03:29:36.997Z,69.72
2018-06-11T03:32:04.968Z,70.34
2018-06-11T03:34:32.511Z,70.55
2018-06-11T03:37:00.035Z,70.94
2018-06-11T03:39:27.550Z,71.03
2018-06-11T03:41:55.082Z,70.89
2018-06-11T03:44:22.602Z,70.75
2018-06-11T03:46:50.150Z,70.78
2018-06-11T03:49:17.711Z,70.53
2018-06-11T03:51:45.222Z,70.04
2018-06-11T03:54:12.734Z,69.45
2018-06-11T03:56:40.281Z,69.70
2018-06-11T03:59:07.818Z,69.72
2018-06-11T04:01:35.338Z,69.32
2018-06-11T04:04:02.870Z,69.18
2018-06-11T04:06:30.419Z,69.85
2018-06-11T04:08:57.934Z,69.65
2018-06-11T04:11:25.474Z,69.50
2018-06-11T04:13:53.043Z,68.77
2018-06-11T04:16:20.561Z,69.17
2018-06-11T04:18:48.142Z,68.16
2018-06-11T04:21:15.645Z,68.62
2018-06-11T04:23:43.166Z,68.42
2018-06-11T04:26:10.706Z,68.52
2018-06-11T04:28:38.206Z,68.34
2018-06-11T04:31:05.722Z,68.60
2018-06-11T04:33:33.246Z,68.48
2018-06-11T04:36:00.765Z,68.35
2018-06-11T04:38:28.270Z,68.55
2018-06-11T04:40:55.826Z,68.18
2018-06-11T04:43:23.358Z,68.10
2018-06-11T04:45:50.857Z,68.08
2018-06-11T04:48:18.397Z,68.36
2018-06-11T04:50:45.922Z,67.66
2018-06-11T04:53:13.434Z,67.68
2018-06-11T04:55:40.998Z,68.70
2018-06-11T04:58:08.507Z,68.82
2018-06-11T05:00:36.019Z,68.63
2018-06-11T05:03:03.570Z,68.60
2018-06-11T05:05:31.098Z,68.54
2018-06-11T05:07:58.611Z,67.92
2018-06-11T05:10:26.155Z,67.35
2018-06-11T05:12:53.661Z,68.41
2018-06-11T05:15:21.200Z,67.52
2018-06-11T05:17:48.747Z,67.16
2018-06-11T05:20:16.246Z,67.26
2018-06-11T05:22:43.766Z,67.75
2018-06-11T05:25:11.317Z,67.68
2018-06-11T05:27:38.819Z,67.39
2018-06-11T05:30:06.330Z,67.84
2018-06-11T05:32:33.867Z,67.92
2018-06-11T05:35:01.387Z,67.59
2018-06-11T05:37:28.906Z,67.95
2018-06-11T05:39:56.458Z,67.37
2018-06-11T05:42:23.945Z,67.25
2018-06-11T05:44:51.452Z,67.02
2018-06-11T05:47:19.302Z,67.05
2018-06-11T05:49:46.806Z,66.95
2018-06-11T05:52:14.312Z,67.15
2018-06-11T05:54:41.855Z,67.20
2018-06-11T05:57:09.413Z,68.08
2018-06-11T05:59:36.946Z,67.79
2018-06-11T06:02:04.596Z,67.28
2018-06-11T06:04:32.118Z,66.56
2018-06-11T06:06:59.668Z,66.60
2018-06-11T06:09:27.233Z,66.80
2018-06-11T06:11:54.762Z,67.06
2018-06-11T06:14:22.291Z,67.29
2018-06-11T06:16:49.837Z,67.06
2018-06-11T06:19:17.366Z,66.96
2018-06-11T06:21:44.938Z,67.06
2018-06-11T06:24:12.577Z,66.69
2018-06-11T06:26:40.133Z,67.15
2018-06-11T06:29:07.634Z,68.14
2018-06-11T06:31:35.195Z,67.99
2018-06-11T06:34:02.730Z,68.24
2018-06-11T06:36:30.253Z,67.43
2018-06-11T06:38:57.806Z,66.98
2018-06-11T06:41:25.338Z,66.15
2018-06-11T06:43:52.862Z,65.71
2018-06-11T06:46:20.415Z,65.61
2018-06-11T06:48:47.943Z,65.25
2018-06-11T06:51:15.451Z,65.19
2018-06-11T06:53:43.045Z,65.14
2018-06-11T06:56:10.563Z,64.62
2018-06-11T06:58:38.068Z,63.95
2018-06-11T07:01:05.647Z,63.30
2018-06-11T07:03:33.179Z,62.93
2018-06-11T07:06:01.637Z,61.14
2018-06-11T07:08:29.204Z,61.50
2018-06-11T07:10:56.734Z,60.68
2018-06-11T07:13:24.258Z,61.24
2018-06-11T07:15:51.813Z,60.66
2018-06-11T07:18:19.335Z,59.42
2018-06-11T07:20:46.857Z,59.15
2018-06-11T07:23:14.446Z,58.69
2018-06-11T07:25:41.970Z,58.76
2018-06-11T07:28:09.505Z,60.58
2018-06-11T07:30:37.045Z,61.16
2018-06-11T07:33:04.590Z,60.45
2018-06-11T07:35:32.137Z,60.69
2018-06-11T07:37:59.719Z,60.42
2018-06-11T07:40:27.243Z,60.62
2018-06-11T07:42:54.767Z,60.52
2018-06-11T07:45:22.353Z,59.91
2018-06-11T07:47:49.923Z,59.93
2018-06-11T07:50:17.451Z,59.79
2018-06-11T07:52:44.998Z,59.25
2018-06-11T07:55:12.531Z,59.82
2018-06-11T07:57:40.075Z,59.28
2018-06-11T08:00:07.667Z,59.53
2018-06-11T08:02:35.203Z,60.67
2018-06-11T08:05:02.798Z,60.09
2018-06-11T08:07:30.425Z,61.07
2018-06-11T08:09:57.960Z,61.79
2018-06-11T08:12:25.498Z,62.39
2018-06-11T08:14:53.067Z,62.29
2018-06-11T08:17:20.589Z,61.54
2018-06-11T08:19:48.118Z,60.33
2018-06-11T08:22:15.702Z,60.81
2018-06-11T08:24:43.242Z,61.94
2018-06-11T08:27:10.773Z,63.01
2018-06-11T08:29:38.346Z,62.77
2018-06-11T08:32:06.010Z,62.63
2018-06-11T08:34:33.543Z,62.62
2018-06-11T08:37:01.101Z,63.06
2018-06-11T08:39:28.642Z,61.14
2018-06-11T08:41:56.175Z,61.26
2018-06-11T08:44:23.735Z,61.42
2018-06-11T08:46:51.279Z,61.49
2018-06-11T08:49:18.866Z,61.29
2018-06-11T08:51:46.418Z,59.96
2018-06-11T08:54:13.930Z,59.60
2018-06-11T08:56:41.454Z,59.47
2018-06-11T08:59:09.038Z,59.23
2018-06-11T09:01:36.594Z,58.51
2018-06-11T09:04:04.170Z,58.34
2018-06-11T09:06:31.710Z,57.99
2018-06-11T09:08:59.236Z,57.92
2018-06-11T09:11:26.775Z,55.54
2018-06-11T09:13:54.342Z,55.68
2018-06-11T09:16:21.886Z,56.43
2018-06-11T09:18:49.411Z,57.19
2018-06-11T09:21:16.974Z,56.40
2018-06-11T09:23:44.505Z,55.17
2018-06-11T09:26:12.031Z,54.43
2018-06-11T09:28:39.591Z,53.47
2018-06-11T09:31:07.125Z,53.07
2018-06-11T09:33:34.650Z,52.52
2018-06-11T09:36:02.200Z,52.44
2018-06-11T09:38:29.731Z,51.42
2018-06-11T09:40:57.331Z,49.66
2018-06-11T09:43:24.863Z,49.68
2018-06-11T09:45:52.391Z,49.62
2018-06-11T09:48:19.913Z,48.61
2018-06-11T09:50:47.474Z,47.57
2018-06-11T09:53:14.999Z,47.59
2018-06-11T09:55:42.575Z,47.51
2018-06-11T09:58:10.106Z,47.70
2018-06-11T10:00:37.642Z,48.61
2018-06-11T10:03:05.222Z,50.21
2018-06-11T10:05:32.978Z,49.96
2018-06-11T10:08:00.507Z,51.26
2018-06-11T10:10:28.079Z,49.69
2018-06-11T10:12:55.642Z,49.17
2018-06-11T10:15:23.181Z,50.29
2018-06-11T10:17:50.711Z,51.38
2018-06-11T10:20:18.276Z,51.13
2018-06-11T10:22:45.798Z,51.28
2018-06-11T10:25:13.298Z,51.83
2018-06-11T10:27:40.878Z,52.40
2018-06-11T10:30:08.432Z,52.66
2018-06-11T10:32:35.954Z,52.77
2018-06-11T10:35:03.546Z,53.53
2018-06-11T10:37:31.059Z,53.25
2018-06-11T10:39:58.586Z,53.00
2018-06-11T10:42:26.154Z,53.00
2018-06-11T10:44:53.657Z,53.26
2018-06-11T10:47:21.417Z,51.90
2018-06-11T10:49:48.947Z,50.77
2018-06-11T10:52:16.483Z,48.29
2018-06-11T10:54:44.020Z,48.47
2018-06-11T10:57:11.629Z,48.29
2018-06-11T10:59:39.147Z,49.99
2018-06-11T11:02:06.772Z,51.51
2018-06-11T11:04:34.322Z,53.10
2018-06-11T11:07:01.858Z,53.21
2018-06-11T11:09:29.377Z,53.73
2018-06-11T11:11:56.918Z,52.14
2018-06-11T11:14:24.449Z,52.18
2018-06-11T11:16:51.998Z,51.64
2018-06-11T11:19:19.566Z,51.50
2018-06-11T11:21:47.083Z,49.93
2018-06-11T11:24:14.588Z,48.39
2018-06-11T11:26:42.141Z,48.04
2018-06-11T11:29:09.741Z,48.03
2018-06-11T11:31:37.356Z,48.81
2018-06-11T11:34:04.886Z,47.78
2018-06-11T11:36:32.394Z,47.06
2018-06-11T11:38:59.902Z,46.38
2018-06-11T11:41:27.479Z,44.78
2018-06-11T11:43:55.022Z,43.11
2018-06-11T11:46:22.555Z,41.55
2018-06-11T11:48:50.125Z,42.18
2018-06-11T11:51:17.642Z,42.40
2018-06-11T11:53:45.183Z,42.34
2018-06-11T11:56:12.720Z,42.21
2018-06-11T11:58:40.237Z,40.31
2018-06-11T12:01:07.742Z,39.76
2018-06-11T12:03:35.298Z,36.12
2018-06-11T12:06:02.828Z,34.77
2018-06-11T12:08:30.346Z,34.38
2018-06-11T12:10:57.954Z,32.93
2018-06-11T12:13:25.483Z,33.75
2018-06-11T12:15:53.029Z,30.97
2018-06-11T12:18:20.597Z,29.27
2018-06-11T12:20:48.112Z,28.83
2018-06-11T12:23:15.646Z,31.48
2018-06-11T12:25:43.190Z,32.64
2018-06-11T12:28:10.705Z,31.73
2018-06-11T12:30:38.236Z,30.18
2018-06-11T12:33:05.823Z,31.32
2018-06-11T12:35:33.334Z,33.09
2018-06-11T12:38:00.850Z,33.33
2018-06-11T12:40:28.405Z,32.40
2018-06-11T12:42:55.945Z,33.43
2018-06-11T12:45:23.470Z,34.18
2018-06-11T12:47:51.107Z,35.79
2018-06-11T12:50:18.646Z,36.49
2018-06-11T12:52:46.215Z,37.12
2018-06-11T12:55:13.752Z,38.24
2018-06-11T12:57:41.255Z,40.50
2018-06-11T13:00:08.812Z,40.71
2018-06-11T13:02:36.366Z,40.93
2018-06-11T13:05:03.950Z,38.15
2018-06-11T13:07:31.471Z,39.81
2018-06-11T13:09:59.001Z,40.47
2018-06-11T13:12:26.560Z,41.73
2018-06-11T13:14:54.081Z,40.72
2018-06-11T13:17:21.658Z,37.53
2018-06-11T13:19:49.167Z,33.85
2018-06-11T13:22:16.683Z,33.30
2018-06-11T13:24:44.236Z,30.60
2018-06-11T13:27:11.770Z,31.85
2018-06-11T13:29:39.295Z,33.05
2018-06-11T13:32:06.833Z,32.31
2018-06-11T13:34:34.338Z,29.41
2018-06-11T13:37:01.918Z,27.47
2018-06-11T13:39:29.457Z,29.18
2018-06-11T13:41:56.962Z,30.41
2018-06-11T13:44:24.479Z,31.46
2018-06-11T13:46:52.060Z,33.04
2018-06-11T13:49:19.573Z,35.37
2018-06-11T13:51:47.098Z,36.03
2018-06-11T13:54:14.698Z,35.69
2018-06-11T13:56:42.245Z,36.21
2018-06-11T13:59:09.787Z,36.76
2018-06-11T14:01:37.341Z,36.32
2018-06-11T14:04:04.975Z,35.71
2018-06-11T14:06:32.509Z,36.83
2018-06-11T14:09:00.062Z,36.40
2018-06-11T14:11:27.641Z,36.38
2018-06-11T14:13:55.284Z,35.35
2018-06-11T14:16:22.834Z,35.19
2018-06-11T14:18:50.338Z,35.11
2018-06-11T14:21:17.846Z,35.04
2018-06-11T14:23:45.383Z,35.97
2018-06-11T14:26:12.901Z,34.24
2018-06-11T14:28:40.480Z,33.64
2018-06-11T14:31:08.007Z,33.75
2018-06-11T14:33:35.553Z,33.87
2018-06-11T14:36:03.110Z,35.21
2018-06-11T14:38:30.730Z,34.79
2018-06-11T14:40:58.274Z,34.92
2018-06-11T14:43:25.806Z,33.41
2018-06-11T14:45:53.374Z,33.85
2018-06-11T14:48:20.898Z,36.50
2018-06-11T14:50:48.399Z,35.54
2018-06-11T14:53:15.954Z,36.15
2018-06-11T14:55:43.498Z,37.70
2018-06-11T14:58:11.099Z,38.10
2018-06-11T15:00:38.583Z,37.50
2018-06-11T15:03:06.106Z,38.15
2018-06-11T15:05:33.666Z,40.30
2018-06-11T15:08:01.234Z,42.00
2018-06-11T15:10:28.755Z,42.64
2018-06-11T15:12:56.274Z,43.52
2018-06-11T15:15:23.824Z,44.39
2018-06-11T15:17:51.349Z,43.91
2018-06-11T15:20:18.866Z,44.61
2018-06-11T15:22:46.427Z,44.49
2018-06-11T15:25:13.938Z,44.70
2018-06-11T15:27:41.456Z,45.31
2018-06-11T15:30:08.996Z,45.70
2018-06-11T15:32:36.539Z,46.11
2018-06-11T15:35:04.078Z,46.21
2018-06-11T15:37:31.615Z,46.62
2018-06-11T15:39:59.143Z,45.77
2018-06-11T15:42:26.704Z,45.50
2018-06-11T15:44:54.263Z,46.16
2018-06-11T15:47:21.832Z,46.60
2018-06-11T15:49:49.353Z,46.89
2018-06-11T15:52:16.899Z,47.07
2018-06-11T15:54:44.411Z,46.83
2018-06-11T15:57:11.964Z,46.46
2018-06-11T15:59:39.535Z,46.82
2018-06-11T16:02:07.088Z,46.62
2018-06-11T16:04:34.592Z,46.94
2018-06-11T16:07:02.147Z,46.93
2018-06-11T16:09:29.671Z,47.41
2018-06-11T16:11:57.212Z,47.75
2018-06-11T16:14:24.766Z,48.23
2018-06-11T16:16:52.296Z,48.13
2018-06-11T16:19:19.799Z,48.28
2018-06-11T16:21:47.342Z,48.62
2018-06-11T16:24:14.874Z,49.42
2018-06-11T16:26:42.421Z,48.34
2018-06-11T16:29:09.970Z,48.67
2018-06-11T16:31:37.546Z,49.39
2018-06-11T16:34:05.055Z,48.60
2018-06-11T16:36:32.626Z,48.79
2018-06-11T16:39:00.165Z,49.81
2018-06-11T16:41:27.961Z,48.91
2018-06-11T16:43:55.505Z,49.42
2018-06-11T16:46:23.030Z,49.68
2018-06-11T16:48:50.578Z,50.50
2018-06-11T16:51:18.119Z,49.70
2018-06-11T16:53:45.626Z,49.92
2018-06-11T16:56:13.159Z,50.53
2018-06-11T16:58:40.754Z,50.56
2018-06-11T17:01:08.286Z,50.17
2018-06-11T17:03:35.792Z,50.31
2018-06-11T17:06:03.394Z,50.79
2018-06-11T17:08:30.917Z,50.98
2018-06-11T17:10:58.498Z,51.94
2018-06-11T17:13:26.069Z,51.13
2018-06-11T17:15:53.611Z,51.13
2018-06-11T17:18:21.138Z,50.42
2018-06-11T17:20:48.674Z,51.35
2018-06-11T17:23:16.194Z,51.27
2018-06-11T17:25:43.711Z,51.08
2018-06-11T17:28:11.266Z,51.55
2018-06-11T17:30:38.778Z,52.21
2018-06-11T17:33:06.383Z,51.81
2018-06-11T17:35:33.944Z,52.49
2018-06-11T17:38:02.645Z,52.49
2018-06-11T17:40:30.203Z,52.02
2018-06-11T17:42:57.762Z,52.36
2018-06-11T17:45:25.284Z,52.53
2018-06-11T17:47:52.790Z,52.86
2018-06-11T17:50:20.338Z,53.30
2018-06-11T17:52:47.851Z,52.72
2018-06-11T17:55:15.378Z,53.27
2018-06-11T17:57:42.964Z,53.22
2018-06-11T18:00:10.462Z,53.34
2018-06-11T18:02:37.982Z,53.88
2018-06-11T18:05:05.555Z,54.02
2018-06-11T18:07:33.103Z,54.44
2018-06-11T18:10:00.658Z,53.56
2018-06-11T18:12:28.210Z,53.58
2018-06-11T18:14:55.719Z,53.84
2018-06-11T18:17:23.254Z,54.82
2018-06-11T18:19:50.827Z,54.66
2018-06-11T18:22:18.355Z,54.46
2018-06-11T18:24:45.874Z,54.99
2018-06-11T18:27:13.453Z,55.32
2018-06-11T18:29:40.978Z,55.09
2018-06-11T18:32:08.519Z,55.29
2018-06-11T18:34:36.081Z,54.76
2018-06-11T18:37:03.608Z,54.69
2018-06-11T18:39:31.134Z,54.83
2018-06-11T18:41:58.708Z,55.01
2018-06-11T18:44:26.262Z,54.75
2018-06-11T18:46:53.798Z,54.31
2018-06-11T18:49:21.374Z,54.27
2018-06-11T18:51:48.907Z,54.01
2018-06-11T18:54:16.422Z,54.33
2018-06-11T18:56:44.003Z,53.87
2018-06-11T18:59:11.513Z,54.66
2018-06-11T19:01:39.034Z,54.67
2018-06-11T19:04:06.651Z,55.23
2018-06-11T19:06:34.170Z,54.73
2018-06-11T19:09:01.718Z,55.01
2018-06-11T19:11:29.310Z,54.81
2018-06-11T19:13:56.841Z,55.67
2018-06-11T19:16:24.377Z,55.51
2018-06-11T19:18:51.989Z,55.00
2018-06-11T19:21:19.474Z,55.06
2018-06-11T19:23:47.017Z,55.48
2018-06-11T19:26:14.610Z,55.25
2018-06-11T19:28:42.146Z,55.30
2018-06-11T19:31:09.694Z,55.31
2018-06-11T19:33:37.255Z,55.80
2018-06-11T19:36:04.826Z,56.09
2018-06-11T19:38:32.366Z,56.63
2018-06-11T19:40:59.930Z,56.75
2018-06-11T19:43:27.506Z,56.23
2018-06-11T19:45:55.014Z,56.76
2018-06-11T19:48:22.566Z,57.13
2018-06-11T19:50:50.115Z,56.90
2018-06-11T19:53:17.638Z,56.78
2018-06-11T19:55:45.202Z,56.52
2018-06-11T19:58:12.735Z,56.84
2018-06-11T20:00:40.262Z,56.76
2018-06-11T20:03:07.888Z,56.46
2018-06-11T20:05:35.428Z,57.04
2018-06-11T20:08:03.010Z,56.49
2018-06-11T20:10:30.595Z,56.15
2018-06-11T20:12:58.127Z,56.55
2018-06-11T20:15:25.666Z,56.29
2018-06-11T20:17:53.218Z,56.55
2018-06-11T20:20:20.801Z,56.60
2018-06-11T20:22:48.356Z,56.72
2018-06-11T20:25:15.919Z,56.91
2018-06-11T20:27:43.497Z,56.39
2018-06-11T20:30:11.046Z,56.38
2018-06-11T20:32:38.619Z,56.45
2018-06-11T20:35:06.154Z,56.47
2018-06-11T20:37:33.716Z,56.44
2018-06-11T20:40:01.316Z,56.55
2018-06-11T20:42:28.842Z,56.11
2018-06-11T20:44:56.354Z,56.25
2018-06-11T20:47:23.937Z,56.66
2018-06-11T20:49:51.446Z,56.06
2018-06-11T20:52:18.972Z,55.55
2018-06-11T20:54:46.532Z,56.07
2018-06-11T20:57:14.170Z,56.60
2018-06-11T20:59:41.686Z,56.71
2018-06-11T21:02:09.271Z,56.56
2018-06-11T21:04:36.798Z,56.72
2018-06-11T21:07:04.580Z,56.07
2018-06-11T21:09:32.145Z,55.75
2018-06-11T21:11:59.671Z,55.97
2018-06-11T21:14:27.200Z,55.72
2018-06-11T21:16:54.786Z,55.92
2018-06-11T21:19:22.354Z,56.05
2018-06-11T21:21:49.850Z,56.01
2018-06-11T21:24:17.405Z,55.91
2018-06-11T21:26:44.922Z,56.11
2018-06-11T21:29:12.450Z,56.33
2018-06-11T21:31:39.995Z,56.23
2018-06-11T21:34:07.535Z,56.76
2018-06-11T21:36:35.075Z,56.79
2018-06-11T21:39:02.774Z,56.87
2018-06-11T21:41:30.298Z,57.33
2018-06-11T21:43:57.813Z,57.11
2018-06-11T21:46:25.360Z,57.56
2018-06-11T21:48:52.900Z,57.50
2018-06-11T21:51:20.511Z,57.62
2018-06-11T21:53:48.050Z,57.99
2018-06-11T21:56:15.570Z,57.91
2018-06-11T21:58:43.082Z,58.11
2018-06-11T22:01:10.660Z,58.43
2018-06-11T22:03:38.207Z,58.96
2018-06-11T22:06:05.750Z,58.80
2018-06-11T22:08:33.294Z,58.62
2018-06-11T22:11:00.822Z,58.59
2018-06-11T22:13:28.350Z,58.78
2018-06-11T22:15:56.902Z,59.35
2018-06-11T22:18:24.417Z,59.91
2018-06-11T22:20:51.937Z,60.45
2018-06-11T22:23:19.513Z,61.11
2018-06-11T22:25:47.030Z,61.75
2018-06-11T22:28:14.545Z,61.78
2018-06-11T22:33:09.002Z,61.68
2018-06-11T22:35:36.535Z,62.05
2018-06-11T22:38:04.100Z,63.13
2018-06-11T22:40:31.618Z,63.90
2018-06-11T22:42:59.136Z,64.27
2018-06-11T22:45:26.677Z,64.91
2018-06-11T22:47:54.178Z,64.27
2018-06-11T22:50:21.674Z,64.74
2018-06-11T22:52:49.230Z,63.38
2018-06-11T22:55:16.754Z,63.09
2018-06-11T22:57:44.263Z,62.91
2018-06-11T23:00:12.327Z,63.20
2018-06-11T23:02:39.830Z,64.06
2018-06-11T23:05:07.335Z,64.37
2018-06-11T23:07:34.902Z,63.49
2018-06-11T23:10:02.426Z,64.04
2018-06-11T23:12:29.934Z,65.61
2018-06-11T23:14:57.491Z,66.20
2018-06-11T23:17:25.014Z,65.36
2018-06-11T23:19:52.522Z,65.13
2018-06-11T23:22:20.082Z,64.49
2018-06-11T23:24:47.592Z,64.16
2018-06-11T23:27:15.111Z,63.71
2018-06-11T23:29:42.643Z,64.65
2018-06-11T23:32:10.137Z,64.97
2018-06-11T23:34:37.650Z,65.63
2018-06-11T23:37:05.214Z,64.35
2018-06-11T23:39:32.738Z,64.37
2018-06-11T23:42:17.433Z,64.97
2018-06-11T23:47:52.326Z,64.93
2018-06-11T23:50:19.862Z,65.41
2018-06-11T23:52:47.414Z,65.60
2018-06-11T23:55:15.013Z,66.05
2018-06-11T23:57:42.546Z,66.86
